sensor_id;sensor_type;location;lat;lon;timestamp;temperature;humidity
43520;DHT22;46848;51.980;5.918;2023-08-21T00:01:16;24.10;60.20
43520;DHT22;46848;51.980;5.918;2023-08-21T00:03:42;24.10;60.30
43520;DHT22;46848;51.980;5.918;2023-08-21T00:06:07;24.10;60.40
43520;DHT22;46848;51.980;5.918;2023-08-21T00:08:33;24.00;60.50
43520;DHT22;46848;51.980;5.918;2023-08-21T00:10:59;24.00;60.60
43520;DHT22;46848;51.980;5.918;2023-08-21T00:13:24;24.00;60.70
43520;DHT22;46848;51.980;5.918;2023-08-21T00:15:50;24.00;60.80
43520;DHT22;46848;51.980;5.918;2023-08-21T00:18:15;24.00;60.90
43520;DHT22;46848;51.980;5.918;2023-08-21T00:20:41;23.90;60.90
43520;DHT22;46848;51.980;5.918;2023-08-21T00:23:08;23.90;61.10
43520;DHT22;46848;51.980;5.918;2023-08-21T00:25:34;23.90;61.20
43520;DHT22;46848;51.980;5.918;2023-08-21T00:28:01;23.90;61.40
43520;DHT22;46848;51.980;5.918;2023-08-21T00:30:27;23.80;61.50
43520;DHT22;46848;51.980;5.918;2023-08-21T00:32:52;23.80;61.60
43520;DHT22;46848;51.980;5.918;2023-08-21T00:35:18;23.80;61.70
43520;DHT22;46848;51.980;5.918;2023-08-21T00:37:43;23.80;61.70
43520;DHT22;46848;51.980;5.918;2023-08-21T00:40:09;23.80;61.80
43520;DHT22;46848;51.980;5.918;2023-08-21T00:42:35;23.80;61.90
43520;DHT22;46848;51.980;5.918;2023-08-21T00:45:01;23.80;61.90
43520;DHT22;46848;51.980;5.918;2023-08-21T00:47:26;23.70;61.90
43520;DHT22;46848;51.980;5.918;2023-08-21T00:49:52;23.70;61.90
43520;DHT22;46848;51.980;5.918;2023-08-21T00:52:18;23.80;62.00
43520;DHT22;46848;51.980;5.918;2023-08-21T00:54:44;23.70;62.10
43520;DHT22;46848;51.980;5.918;2023-08-21T00:57:10;23.70;62.20
43520;DHT22;46848;51.980;5.918;2023-08-21T00:59:37;23.70;62.30
43520;DHT22;46848;51.980;5.918;2023-08-21T01:02:03;23.70;62.40
43520;DHT22;46848;51.980;5.918;2023-08-21T01:04:29;23.70;62.50
43520;DHT22;46848;51.980;5.918;2023-08-21T01:06:54;23.60;62.50
43520;DHT22;46848;51.980;5.918;2023-08-21T01:09:56;23.70;62.60
43520;DHT22;46848;51.980;5.918;2023-08-21T01:12:33;23.70;62.70
43520;DHT22;46848;51.980;5.918;2023-08-21T01:15:06;23.60;62.60
43520;DHT22;46848;51.980;5.918;2023-08-21T01:17:34;23.60;62.70
43520;DHT22;46848;51.980;5.918;2023-08-21T01:20:01;23.60;62.70
43520;DHT22;46848;51.980;5.918;2023-08-21T01:22:35;23.60;62.80
43520;DHT22;46848;51.980;5.918;2023-08-21T01:25:02;23.60;62.90
43520;DHT22;46848;51.980;5.918;2023-08-21T01:27:27;23.50;62.80
43520;DHT22;46848;51.980;5.918;2023-08-21T01:29:53;23.60;62.90
43520;DHT22;46848;51.980;5.918;2023-08-21T01:32:37;23.50;62.90
43520;DHT22;46848;51.980;5.918;2023-08-21T01:35:06;23.50;63.10
43520;DHT22;46848;51.980;5.918;2023-08-21T01:37:32;23.50;63.20
43520;DHT22;46848;51.980;5.918;2023-08-21T01:39:58;23.40;63.20
43520;DHT22;46848;51.980;5.918;2023-08-21T01:42:27;23.40;63.40
43520;DHT22;46848;51.980;5.918;2023-08-21T01:44:52;23.40;63.40
43520;DHT22;46848;51.980;5.918;2023-08-21T01:47:18;23.40;63.40
43520;DHT22;46848;51.980;5.918;2023-08-21T01:49:43;23.40;63.40
43520;DHT22;46848;51.980;5.918;2023-08-21T01:52:09;23.40;63.50
43520;DHT22;46848;51.980;5.918;2023-08-21T01:54:35;23.40;63.60
43520;DHT22;46848;51.980;5.918;2023-08-21T01:57:01;23.40;63.70
43520;DHT22;46848;51.980;5.918;2023-08-21T01:59:26;23.30;63.70
43520;DHT22;46848;51.980;5.918;2023-08-21T02:01:54;23.30;63.70
43520;DHT22;46848;51.980;5.918;2023-08-21T02:04:20;23.30;63.70
43520;DHT22;46848;51.980;5.918;2023-08-21T02:06:45;23.30;63.90
43520;DHT22;46848;51.980;5.918;2023-08-21T02:09:11;23.30;63.70
43520;DHT22;46848;51.980;5.918;2023-08-21T02:11:36;23.30;63.70
43520;DHT22;46848;51.980;5.918;2023-08-21T02:14:02;23.30;63.60
43520;DHT22;46848;51.980;5.918;2023-08-21T02:16:28;23.30;63.50
43520;DHT22;46848;51.980;5.918;2023-08-21T02:18:54;23.20;63.50
43520;DHT22;46848;51.980;5.918;2023-08-21T02:21:20;23.20;63.50
43520;DHT22;46848;51.980;5.918;2023-08-21T02:23:46;23.20;63.60
43520;DHT22;46848;51.980;5.918;2023-08-21T02:26:11;23.20;63.70
43520;DHT22;46848;51.980;5.918;2023-08-21T02:28:37;23.20;63.70
43520;DHT22;46848;51.980;5.918;2023-08-21T02:31:03;23.20;63.70
43520;DHT22;46848;51.980;5.918;2023-08-21T02:33:28;23.10;63.70
43520;DHT22;46848;51.980;5.918;2023-08-21T02:35:54;23.20;63.80
43520;DHT22;46848;51.980;5.918;2023-08-21T02:38:19;23.10;63.70
43520;DHT22;46848;51.980;5.918;2023-08-21T02:40:45;23.10;63.70
43520;DHT22;46848;51.980;5.918;2023-08-21T02:43:12;23.10;63.80
43520;DHT22;46848;51.980;5.918;2023-08-21T02:45:38;23.10;63.80
43520;DHT22;46848;51.980;5.918;2023-08-21T02:48:04;23.20;63.80
43520;DHT22;46848;51.980;5.918;2023-08-21T02:50:29;23.20;63.80
43520;DHT22;46848;51.980;5.918;2023-08-21T02:52:55;23.20;63.90
43520;DHT22;46848;51.980;5.918;2023-08-21T02:55:21;23.10;63.90
43520;DHT22;46848;51.980;5.918;2023-08-21T02:57:47;23.10;63.90
43520;DHT22;46848;51.980;5.918;2023-08-21T03:00:13;23.10;64.00
43520;DHT22;46848;51.980;5.918;2023-08-21T03:02:38;23.10;64.00
43520;DHT22;46848;51.980;5.918;2023-08-21T03:05:07;23.10;64.10
43520;DHT22;46848;51.980;5.918;2023-08-21T03:07:34;23.10;64.20
43520;DHT22;46848;51.980;5.918;2023-08-21T03:10:00;23.00;64.20
43520;DHT22;46848;51.980;5.918;2023-08-21T03:12:27;23.00;64.20
43520;DHT22;46848;51.980;5.918;2023-08-21T03:14:52;23.00;64.30
43520;DHT22;46848;51.980;5.918;2023-08-21T03:17:18;23.00;64.40
43520;DHT22;46848;51.980;5.918;2023-08-21T03:19:44;23.00;64.50
43520;DHT22;46848;51.980;5.918;2023-08-21T03:22:09;23.00;64.50
43520;DHT22;46848;51.980;5.918;2023-08-21T03:24:35;23.00;65.00
43520;DHT22;46848;51.980;5.918;2023-08-21T03:27:01;23.00;64.60
43520;DHT22;46848;51.980;5.918;2023-08-21T03:29:27;23.00;64.60
43520;DHT22;46848;51.980;5.918;2023-08-21T03:31:53;23.00;64.60
43520;DHT22;46848;51.980;5.918;2023-08-21T03:34:22;23.00;64.60
43520;DHT22;46848;51.980;5.918;2023-08-21T03:36:47;23.00;64.70
43520;DHT22;46848;51.980;5.918;2023-08-21T03:39:13;23.00;64.70
43520;DHT22;46848;51.980;5.918;2023-08-21T03:41:39;23.00;64.70
43520;DHT22;46848;51.980;5.918;2023-08-21T03:44:04;23.00;64.70
43520;DHT22;46848;51.980;5.918;2023-08-21T03:46:30;23.00;64.60
43520;DHT22;46848;51.980;5.918;2023-08-21T03:48:56;23.00;64.60
43520;DHT22;46848;51.980;5.918;2023-08-21T03:51:21;23.00;64.60
43520;DHT22;46848;51.980;5.918;2023-08-21T03:53:47;23.00;64.70
43520;DHT22;46848;51.980;5.918;2023-08-21T03:56:12;23.00;64.70
43520;DHT22;46848;51.980;5.918;2023-08-21T03:58:38;23.00;64.70
43520;DHT22;46848;51.980;5.918;2023-08-21T04:01:04;23.00;64.80
43520;DHT22;46848;51.980;5.918;2023-08-21T04:03:29;23.00;64.80
43520;DHT22;46848;51.980;5.918;2023-08-21T04:05:55;23.00;64.80
43520;DHT22;46848;51.980;5.918;2023-08-21T04:08:24;22.90;64.70
43520;DHT22;46848;51.980;5.918;2023-08-21T04:10:51;22.90;64.70
43520;DHT22;46848;51.980;5.918;2023-08-21T04:13:18;22.90;64.70
43520;DHT22;46848;51.980;5.918;2023-08-21T04:15:45;22.90;64.70
43520;DHT22;46848;51.980;5.918;2023-08-21T04:18:10;22.90;64.70
43520;DHT22;46848;51.980;5.918;2023-08-21T04:20:37;22.80;64.80
43520;DHT22;46848;51.980;5.918;2023-08-21T04:23:02;22.80;64.90
43520;DHT22;46848;51.980;5.918;2023-08-21T04:25:28;22.80;64.90
43520;DHT22;46848;51.980;5.918;2023-08-21T04:27:54;22.80;64.90
43520;DHT22;46848;51.980;5.918;2023-08-21T04:30:19;22.80;64.90
43520;DHT22;46848;51.980;5.918;2023-08-21T04:32:46;22.70;64.80
43520;DHT22;46848;51.980;5.918;2023-08-21T04:35:12;22.70;64.80
43520;DHT22;46848;51.980;5.918;2023-08-21T04:37:42;22.70;64.70
43520;DHT22;46848;51.980;5.918;2023-08-21T04:40:09;22.70;64.60
43520;DHT22;46848;51.980;5.918;2023-08-21T04:42:35;22.70;64.40
43520;DHT22;46848;51.980;5.918;2023-08-21T04:45:00;22.70;64.40
43520;DHT22;46848;51.980;5.918;2023-08-21T04:47:27;22.60;64.40
43520;DHT22;46848;51.980;5.918;2023-08-21T04:49:54;22.60;64.40
43520;DHT22;46848;51.980;5.918;2023-08-21T04:52:20;22.60;64.40
43520;DHT22;46848;51.980;5.918;2023-08-21T04:54:47;22.60;64.40
43520;DHT22;46848;51.980;5.918;2023-08-21T04:57:13;22.60;64.40
43520;DHT22;46848;51.980;5.918;2023-08-21T04:59:39;22.60;64.40
43520;DHT22;46848;51.980;5.918;2023-08-21T05:02:05;22.60;64.40
43520;DHT22;46848;51.980;5.918;2023-08-21T05:04:31;22.60;64.40
43520;DHT22;46848;51.980;5.918;2023-08-21T05:06:57;22.60;64.40
43520;DHT22;46848;51.980;5.918;2023-08-21T05:09:22;22.60;64.40
43520;DHT22;46848;51.980;5.918;2023-08-21T05:11:48;22.60;64.40
43520;DHT22;46848;51.980;5.918;2023-08-21T05:14:13;22.60;64.50
43520;DHT22;46848;51.980;5.918;2023-08-21T05:16:39;22.60;64.50
43520;DHT22;46848;51.980;5.918;2023-08-21T05:19:05;22.70;64.60
43520;DHT22;46848;51.980;5.918;2023-08-21T05:21:30;22.70;65.30
43520;DHT22;46848;51.980;5.918;2023-08-21T05:23:56;22.70;64.80
43520;DHT22;46848;51.980;5.918;2023-08-21T05:26:21;22.70;65.00
43520;DHT22;46848;51.980;5.918;2023-08-21T05:28:47;22.70;65.10
43520;DHT22;46848;51.980;5.918;2023-08-21T05:31:12;22.70;65.20
43520;DHT22;46848;51.980;5.918;2023-08-21T05:33:38;22.70;65.10
43520;DHT22;46848;51.980;5.918;2023-08-21T05:36:04;22.70;65.00
43520;DHT22;46848;51.980;5.918;2023-08-21T05:38:31;22.70;65.00
43520;DHT22;46848;51.980;5.918;2023-08-21T05:40:57;22.70;64.90
43520;DHT22;46848;51.980;5.918;2023-08-21T05:43:23;22.80;64.90
43520;DHT22;46848;51.980;5.918;2023-08-21T05:45:49;22.90;64.90
43520;DHT22;46848;51.980;5.918;2023-08-21T05:48:15;22.90;64.80
43520;DHT22;46848;51.980;5.918;2023-08-21T05:50:42;23.00;64.70
43520;DHT22;46848;51.980;5.918;2023-08-21T05:53:07;23.10;64.60
43520;DHT22;46848;51.980;5.918;2023-08-21T05:55:33;23.10;64.40
43520;DHT22;46848;51.980;5.918;2023-08-21T05:57:59;23.20;64.30
43520;DHT22;46848;51.980;5.918;2023-08-21T06:00:24;23.10;64.00
43520;DHT22;46848;51.980;5.918;2023-08-21T06:02:50;23.20;63.90
43520;DHT22;46848;51.980;5.918;2023-08-21T06:05:16;23.20;63.80
43520;DHT22;46848;51.980;5.918;2023-08-21T06:07:41;23.20;63.70
43520;DHT22;46848;51.980;5.918;2023-08-21T06:10:09;23.20;63.60
43520;DHT22;46848;51.980;5.918;2023-08-21T06:12:41;23.20;63.60
43520;DHT22;46848;51.980;5.918;2023-08-21T06:15:07;23.30;63.80
43520;DHT22;46848;51.980;5.918;2023-08-21T06:17:34;23.40;63.80
43520;DHT22;46848;51.980;5.918;2023-08-21T06:20:00;23.50;63.70
43520;DHT22;46848;51.980;5.918;2023-08-21T06:22:25;23.60;63.50
43520;DHT22;46848;51.980;5.918;2023-08-21T06:24:51;23.80;63.20
43520;DHT22;46848;51.980;5.918;2023-08-21T06:27:17;23.90;62.90
43520;DHT22;46848;51.980;5.918;2023-08-21T06:29:43;24.00;62.70
43520;DHT22;46848;51.980;5.918;2023-08-21T06:32:09;24.10;62.40
43520;DHT22;46848;51.980;5.918;2023-08-21T06:34:35;24.20;62.10
43520;DHT22;46848;51.980;5.918;2023-08-21T06:37:01;24.20;61.90
43520;DHT22;46848;51.980;5.918;2023-08-21T06:39:27;24.20;61.80
43520;DHT22;46848;51.980;5.918;2023-08-21T06:41:52;24.10;61.70
43520;DHT22;46848;51.980;5.918;2023-08-21T06:44:20;24.10;61.80
43520;DHT22;46848;51.980;5.918;2023-08-21T06:46:46;24.10;61.80
43520;DHT22;46848;51.980;5.918;2023-08-21T06:49:11;24.10;61.70
43520;DHT22;46848;51.980;5.918;2023-08-21T06:51:38;24.20;61.70
43520;DHT22;46848;51.980;5.918;2023-08-21T06:54:03;24.30;61.60
43520;DHT22;46848;51.980;5.918;2023-08-21T06:56:29;24.40;61.30
43520;DHT22;46848;51.980;5.918;2023-08-21T06:58:55;24.50;61.10
43520;DHT22;46848;51.980;5.918;2023-08-21T07:01:21;24.60;61.00
43520;DHT22;46848;51.980;5.918;2023-08-21T07:03:46;24.70;60.70
43520;DHT22;46848;51.980;5.918;2023-08-21T07:06:12;24.80;60.60
43520;DHT22;46848;51.980;5.918;2023-08-21T07:08:38;25.00;60.50
43520;DHT22;46848;51.980;5.918;2023-08-21T07:11:06;25.10;59.80
43520;DHT22;46848;51.980;5.918;2023-08-21T07:13:33;25.30;59.50
43520;DHT22;46848;51.980;5.918;2023-08-21T07:15:59;25.50;59.00
43520;DHT22;46848;51.980;5.918;2023-08-21T07:18:27;25.70;58.50
43520;DHT22;46848;51.980;5.918;2023-08-21T07:20:53;25.90;58.30
43520;DHT22;46848;51.980;5.918;2023-08-21T07:23:19;26.10;57.90
43520;DHT22;46848;51.980;5.918;2023-08-21T07:25:44;26.40;57.40
43520;DHT22;46848;51.980;5.918;2023-08-21T07:28:10;26.60;57.00
43520;DHT22;46848;51.980;5.918;2023-08-21T07:30:37;27.00;56.50
43520;DHT22;46848;51.980;5.918;2023-08-21T07:33:07;27.20;55.80
43520;DHT22;46848;51.980;5.918;2023-08-21T07:35:33;27.40;55.30
43520;DHT22;46848;51.980;5.918;2023-08-21T07:37:58;27.40;55.10
43520;DHT22;46848;51.980;5.918;2023-08-21T07:40:24;27.50;54.90
43520;DHT22;46848;51.980;5.918;2023-08-21T07:42:51;27.70;54.70
43520;DHT22;46848;51.980;5.918;2023-08-21T07:45:17;27.80;54.30
43520;DHT22;46848;51.980;5.918;2023-08-21T07:47:42;28.00;54.10
43520;DHT22;46848;51.980;5.918;2023-08-21T07:50:08;28.10;53.80
43520;DHT22;46848;51.980;5.918;2023-08-21T07:52:35;28.10;53.60
43520;DHT22;46848;51.980;5.918;2023-08-21T07:55:01;28.20;53.50
43520;DHT22;46848;51.980;5.918;2023-08-21T07:57:27;28.20;53.40
43520;DHT22;46848;51.980;5.918;2023-08-21T07:59:56;28.00;53.50
43520;DHT22;46848;51.980;5.918;2023-08-21T08:02:23;27.90;53.60
43520;DHT22;46848;51.980;5.918;2023-08-21T08:04:49;27.80;53.90
43520;DHT22;46848;51.980;5.918;2023-08-21T08:07:15;27.80;54.10
43520;DHT22;46848;51.980;5.918;2023-08-21T08:09:40;27.70;54.10
43520;DHT22;46848;51.980;5.918;2023-08-21T08:12:06;27.80;54.30
43520;DHT22;46848;51.980;5.918;2023-08-21T08:14:32;27.80;53.90
43520;DHT22;46848;51.980;5.918;2023-08-21T08:16:58;27.80;54.20
43520;DHT22;46848;51.980;5.918;2023-08-21T08:19:23;27.90;54.10
43520;DHT22;46848;51.980;5.918;2023-08-21T08:21:49;27.80;54.10
43520;DHT22;46848;51.980;5.918;2023-08-21T08:24:15;28.00;54.10
43520;DHT22;46848;51.980;5.918;2023-08-21T08:26:40;28.10;54.00
43520;DHT22;46848;51.980;5.918;2023-08-21T08:29:08;28.30;54.00
43520;DHT22;46848;51.980;5.918;2023-08-21T08:31:34;28.30;53.20
43520;DHT22;46848;51.980;5.918;2023-08-21T08:34:00;28.20;53.00
43520;DHT22;46848;51.980;5.918;2023-08-21T08:36:25;27.90;52.80
43520;DHT22;46848;51.980;5.918;2023-08-21T08:38:51;27.70;53.80
43520;DHT22;46848;51.980;5.918;2023-08-21T08:44:09;27.90;54.20
43520;DHT22;46848;51.980;5.918;2023-08-21T08:46:35;28.00;54.20
43520;DHT22;46848;51.980;5.918;2023-08-21T08:49:03;28.30;54.10
43520;DHT22;46848;51.980;5.918;2023-08-21T08:51:30;28.40;53.60
43520;DHT22;46848;51.980;5.918;2023-08-21T08:53:58;28.50;53.50
43520;DHT22;46848;51.980;5.918;2023-08-21T08:56:24;28.60;53.30
43520;DHT22;46848;51.980;5.918;2023-08-21T08:58:50;28.70;52.90
43520;DHT22;46848;51.980;5.918;2023-08-21T09:01:16;28.70;52.90
43520;DHT22;46848;51.980;5.918;2023-08-21T09:03:42;28.90;52.80
43520;DHT22;46848;51.980;5.918;2023-08-21T09:06:07;29.00;52.00
43520;DHT22;46848;51.980;5.918;2023-08-21T09:08:33;29.10;52.20
43520;DHT22;46848;51.980;5.918;2023-08-21T09:11:01;29.20;52.20
43520;DHT22;46848;51.980;5.918;2023-08-21T09:13:28;29.40;51.80
43520;DHT22;46848;51.980;5.918;2023-08-21T09:15:56;29.60;52.00
43520;DHT22;46848;51.980;5.918;2023-08-21T09:18:22;29.70;52.00
43520;DHT22;46848;51.980;5.918;2023-08-21T09:20:47;29.80;52.10
43520;DHT22;46848;51.980;5.918;2023-08-21T09:23:17;29.80;51.70
43520;DHT22;46848;51.980;5.918;2023-08-21T09:25:47;29.90;51.60
43520;DHT22;46848;51.980;5.918;2023-08-21T09:28:13;30.00;51.50
43520;DHT22;46848;51.980;5.918;2023-08-21T09:30:53;30.10;51.20
43520;DHT22;46848;51.980;5.918;2023-08-21T09:33:21;30.20;50.20
43520;DHT22;46848;51.980;5.918;2023-08-21T09:35:51;30.30;50.40
43520;DHT22;46848;51.980;5.918;2023-08-21T09:38:17;30.60;50.40
43520;DHT22;46848;51.980;5.918;2023-08-21T09:40:51;30.80;50.20
43520;DHT22;46848;51.980;5.918;2023-08-21T09:43:16;31.00;49.90
43520;DHT22;46848;51.980;5.918;2023-08-21T09:45:46;31.00;49.20
43520;DHT22;46848;51.980;5.918;2023-08-21T09:48:13;31.10;49.10
43520;DHT22;46848;51.980;5.918;2023-08-21T09:50:39;31.20;48.90
43520;DHT22;46848;51.980;5.918;2023-08-21T09:53:09;31.10;48.30
43520;DHT22;46848;51.980;5.918;2023-08-21T09:55:35;31.10;47.80
43520;DHT22;46848;51.980;5.918;2023-08-21T09:58:02;31.10;48.30
43520;DHT22;46848;51.980;5.918;2023-08-21T10:00:32;31.30;48.70
43520;DHT22;46848;51.980;5.918;2023-08-21T10:03:01;31.60;48.10
43520;DHT22;46848;51.980;5.918;2023-08-21T10:05:29;31.80;47.80
43520;DHT22;46848;51.980;5.918;2023-08-21T10:07:56;31.90;48.30
43520;DHT22;46848;51.980;5.918;2023-08-21T10:10:22;32.10;47.80
43520;DHT22;46848;51.980;5.918;2023-08-21T10:12:48;32.30;47.70
43520;DHT22;46848;51.980;5.918;2023-08-21T10:15:14;32.40;46.60
43520;DHT22;46848;51.980;5.918;2023-08-21T10:17:42;32.40;46.60
43520;DHT22;46848;51.980;5.918;2023-08-21T10:20:09;32.50;46.80
43520;DHT22;46848;51.980;5.918;2023-08-21T10:22:42;32.50;46.60
43520;DHT22;46848;51.980;5.918;2023-08-21T10:25:19;32.60;46.60
43520;DHT22;46848;51.980;5.918;2023-08-21T10:27:53;32.80;46.30
43520;DHT22;46848;51.980;5.918;2023-08-21T10:30:23;33.10;46.10
43520;DHT22;46848;51.980;5.918;2023-08-21T10:32:51;33.20;45.60
43520;DHT22;46848;51.980;5.918;2023-08-21T10:35:35;33.40;45.70
43520;DHT22;46848;51.980;5.918;2023-08-21T10:40:30;33.60;45.00
43520;DHT22;46848;51.980;5.918;2023-08-21T10:42:56;33.70;45.20
43520;DHT22;46848;51.980;5.918;2023-08-21T10:45:21;33.50;45.40
43520;DHT22;46848;51.980;5.918;2023-08-21T10:47:47;33.30;46.10
43520;DHT22;46848;51.980;5.918;2023-08-21T10:50:14;33.20;46.40
43520;DHT22;46848;51.980;5.918;2023-08-21T10:52:41;33.30;45.70
43520;DHT22;46848;51.980;5.918;2023-08-21T10:55:11;33.50;45.20
43520;DHT22;46848;51.980;5.918;2023-08-21T10:57:38;33.60;45.00
43520;DHT22;46848;51.980;5.918;2023-08-21T11:00:11;33.70;45.00
43520;DHT22;46848;51.980;5.918;2023-08-21T11:02:42;33.90;44.70
43520;DHT22;46848;51.980;5.918;2023-08-21T11:05:09;34.00;44.40
43520;DHT22;46848;51.980;5.918;2023-08-21T11:07:40;34.10;43.90
43520;DHT22;46848;51.980;5.918;2023-08-21T11:10:07;34.30;43.70
43520;DHT22;46848;51.980;5.918;2023-08-21T11:12:34;34.40;43.40
43520;DHT22;46848;51.980;5.918;2023-08-21T11:14:59;34.40;43.70
43520;DHT22;46848;51.980;5.918;2023-08-21T11:17:25;34.40;43.50
43520;DHT22;46848;51.980;5.918;2023-08-21T11:19:51;34.30;43.20
43520;DHT22;46848;51.980;5.918;2023-08-21T11:22:17;34.30;43.40
43520;DHT22;46848;51.980;5.918;2023-08-21T11:24:47;34.40;43.60
43520;DHT22;46848;51.980;5.918;2023-08-21T11:27:15;34.40;42.90
43520;DHT22;46848;51.980;5.918;2023-08-21T11:29:49;34.40;43.10
43520;DHT22;46848;51.980;5.918;2023-08-21T11:34:42;34.50;42.80
43520;DHT22;46848;51.980;5.918;2023-08-21T11:37:11;34.40;42.80
43520;DHT22;46848;51.980;5.918;2023-08-21T11:39:42;34.20;42.60
43520;DHT22;46848;51.980;5.918;2023-08-21T11:42:15;34.20;42.70
43520;DHT22;46848;51.980;5.918;2023-08-21T11:44:49;34.30;42.70
43520;DHT22;46848;51.980;5.918;2023-08-21T11:47:17;34.30;42.30
43520;DHT22;46848;51.980;5.918;2023-08-21T11:49:44;34.30;42.70
43520;DHT22;46848;51.980;5.918;2023-08-21T11:52:13;34.30;42.40
43520;DHT22;46848;51.980;5.918;2023-08-21T11:54:40;34.30;42.00
43520;DHT22;46848;51.980;5.918;2023-08-21T11:57:08;34.30;41.80
43520;DHT22;46848;51.980;5.918;2023-08-21T11:59:34;34.30;41.70
43520;DHT22;46848;51.980;5.918;2023-08-21T12:01:59;34.20;41.60
43520;DHT22;46848;51.980;5.918;2023-08-21T12:04:26;34.10;41.90
43520;DHT22;46848;51.980;5.918;2023-08-21T12:06:52;33.80;42.20
43520;DHT22;46848;51.980;5.918;2023-08-21T12:09:18;33.70;42.20
43520;DHT22;46848;51.980;5.918;2023-08-21T12:11:44;33.60;42.60
43520;DHT22;46848;51.980;5.918;2023-08-21T12:14:10;33.50;42.80
43520;DHT22;46848;51.980;5.918;2023-08-21T12:16:37;33.50;43.30
43520;DHT22;46848;51.980;5.918;2023-08-21T12:19:03;33.50;42.60
43520;DHT22;46848;51.980;5.918;2023-08-21T12:21:28;33.50;42.00
43520;DHT22;46848;51.980;5.918;2023-08-21T12:23:54;33.60;42.30
43520;DHT22;46848;51.980;5.918;2023-08-21T12:26:20;33.50;41.80
43520;DHT22;46848;51.980;5.918;2023-08-21T12:28:49;33.50;41.90
43520;DHT22;46848;51.980;5.918;2023-08-21T12:31:15;33.40;42.00
43520;DHT22;46848;51.980;5.918;2023-08-21T12:33:41;33.50;42.20
43520;DHT22;46848;51.980;5.918;2023-08-21T12:36:06;33.50;42.10
43520;DHT22;46848;51.980;5.918;2023-08-21T12:38:34;33.50;42.10
43520;DHT22;46848;51.980;5.918;2023-08-21T12:41:01;33.50;42.10
43520;DHT22;46848;51.980;5.918;2023-08-21T12:43:27;33.40;42.00
43520;DHT22;46848;51.980;5.918;2023-08-21T12:45:53;33.30;42.10
43520;DHT22;46848;51.980;5.918;2023-08-21T12:48:19;33.30;42.00
43520;DHT22;46848;51.980;5.918;2023-08-21T12:50:44;33.40;42.00
43520;DHT22;46848;51.980;5.918;2023-08-21T12:53:10;33.40;41.90
43520;DHT22;46848;51.980;5.918;2023-08-21T12:55:35;33.50;41.80
43520;DHT22;46848;51.980;5.918;2023-08-21T12:58:01;33.50;41.60
43520;DHT22;46848;51.980;5.918;2023-08-21T13:00:28;33.60;41.40
43520;DHT22;46848;51.980;5.918;2023-08-21T13:02:54;33.60;41.30
43520;DHT22;46848;51.980;5.918;2023-08-21T13:05:19;33.60;41.40
43520;DHT22;46848;51.980;5.918;2023-08-21T13:07:45;33.60;40.90
43520;DHT22;46848;51.980;5.918;2023-08-21T13:10:11;33.60;40.90
43520;DHT22;46848;51.980;5.918;2023-08-21T13:12:36;33.70;40.80
43520;DHT22;46848;51.980;5.918;2023-08-21T13:15:03;33.70;40.60
43520;DHT22;46848;51.980;5.918;2023-08-21T13:17:28;33.80;40.90
43520;DHT22;46848;51.980;5.918;2023-08-21T13:19:54;33.90;41.00
43520;DHT22;46848;51.980;5.918;2023-08-21T13:22:19;33.90;40.60
43520;DHT22;46848;51.980;5.918;2023-08-21T13:24:45;33.90;40.80
43520;DHT22;46848;51.980;5.918;2023-08-21T13:27:11;34.00;40.10
43520;DHT22;46848;51.980;5.918;2023-08-21T13:29:37;34.00;40.60
43520;DHT22;46848;51.980;5.918;2023-08-21T13:32:03;34.00;40.50
43520;DHT22;46848;51.980;5.918;2023-08-21T13:34:29;34.00;40.50
43520;DHT22;46848;51.980;5.918;2023-08-21T13:36:54;34.00;40.50
43520;DHT22;46848;51.980;5.918;2023-08-21T13:39:20;34.00;41.00
43520;DHT22;46848;51.980;5.918;2023-08-21T13:41:48;34.00;41.20
43520;DHT22;46848;51.980;5.918;2023-08-21T13:44:15;33.80;41.00
43520;DHT22;46848;51.980;5.918;2023-08-21T13:46:41;33.70;41.20
43520;DHT22;46848;51.980;5.918;2023-08-21T13:49:07;33.60;41.40
43520;DHT22;46848;51.980;5.918;2023-08-21T13:51:32;33.60;41.20
43520;DHT22;46848;51.980;5.918;2023-08-21T13:53:58;33.70;40.90
43520;DHT22;46848;51.980;5.918;2023-08-21T13:56:24;33.70;40.80
43520;DHT22;46848;51.980;5.918;2023-08-21T13:58:50;33.70;40.50
43520;DHT22;46848;51.980;5.918;2023-08-21T14:01:15;33.70;39.70
43520;DHT22;46848;51.980;5.918;2023-08-21T14:03:41;33.70;39.70
43520;DHT22;46848;51.980;5.918;2023-08-21T14:06:08;33.70;39.60
43520;DHT22;46848;51.980;5.918;2023-08-21T14:08:37;33.70;39.60
43520;DHT22;46848;51.980;5.918;2023-08-21T14:11:02;33.80;39.80
43520;DHT22;46848;51.980;5.918;2023-08-21T14:13:28;33.70;39.40
43520;DHT22;46848;51.980;5.918;2023-08-21T14:15:54;33.70;39.20
43520;DHT22;46848;51.980;5.918;2023-08-21T14:18:19;33.70;39.30
43520;DHT22;46848;51.980;5.918;2023-08-21T14:20:45;33.70;39.40
43520;DHT22;46848;51.980;5.918;2023-08-21T14:23:10;33.70;39.70
43520;DHT22;46848;51.980;5.918;2023-08-21T14:25:36;33.70;39.80
43520;DHT22;46848;51.980;5.918;2023-08-21T14:28:03;33.60;39.60
43520;DHT22;46848;51.980;5.918;2023-08-21T14:30:29;33.60;39.30
43520;DHT22;46848;51.980;5.918;2023-08-21T14:32:56;33.60;39.30
43520;DHT22;46848;51.980;5.918;2023-08-21T14:35:21;33.50;39.10
43520;DHT22;46848;51.980;5.918;2023-08-21T14:37:47;33.60;39.20
43520;DHT22;46848;51.980;5.918;2023-08-21T14:40:13;33.60;38.80
43520;DHT22;46848;51.980;5.918;2023-08-21T14:42:38;33.70;38.50
43520;DHT22;46848;51.980;5.918;2023-08-21T14:45:04;33.70;37.80
43520;DHT22;46848;51.980;5.918;2023-08-21T14:47:31;33.60;37.90
43520;DHT22;46848;51.980;5.918;2023-08-21T14:49:56;33.70;38.10
43520;DHT22;46848;51.980;5.918;2023-08-21T14:52:23;33.70;38.50
43520;DHT22;46848;51.980;5.918;2023-08-21T14:54:50;33.60;38.80
43520;DHT22;46848;51.980;5.918;2023-08-21T14:57:16;33.50;39.00
43520;DHT22;46848;51.980;5.918;2023-08-21T14:59:41;33.40;39.00
43520;DHT22;46848;51.980;5.918;2023-08-21T15:02:07;33.30;39.10
43520;DHT22;46848;51.980;5.918;2023-08-21T15:04:33;33.20;39.30
43520;DHT22;46848;51.980;5.918;2023-08-21T15:06:58;33.10;39.30
43520;DHT22;46848;51.980;5.918;2023-08-21T15:09:25;33.10;39.10
43520;DHT22;46848;51.980;5.918;2023-08-21T15:11:51;33.00;39.10
43520;DHT22;46848;51.980;5.918;2023-08-21T15:14:16;33.00;39.50
43520;DHT22;46848;51.980;5.918;2023-08-21T15:16:43;32.90;39.70
43520;DHT22;46848;51.980;5.918;2023-08-21T15:19:09;32.90;40.10
43520;DHT22;46848;51.980;5.918;2023-08-21T15:21:34;32.80;39.90
43520;DHT22;46848;51.980;5.918;2023-08-21T15:24:01;32.70;39.60
43520;DHT22;46848;51.980;5.918;2023-08-21T15:26:27;32.60;40.20
43520;DHT22;46848;51.980;5.918;2023-08-21T15:28:52;32.50;39.40
43520;DHT22;46848;51.980;5.918;2023-08-21T15:31:18;32.50;39.30
43520;DHT22;46848;51.980;5.918;2023-08-21T15:33:44;32.50;39.30